Terminal Aerodrome Forecast
Issued by NWS

Home | Current Version | Previous Version | Graphics & Text | Print | Product List | Glossary On
Versions: 1 2 3 4 5 6 7 8 9 10 11 12 13 14 15
000
FTUS43 KABR 281725
TAFMBG
TAF
KMBG 281725Z 2818/2918 13008KT P6SM BKN250
     FM290300 VRB05KT P6SM OVC250=

USA.gov is the U.S. government's official web portal to all federal, state and local government web resources and services.